Time;durP1;ratioP1;P1;durP2;ratioP2;P2;SDS_P1;SDS_P2;PMS_P1;PMS_P2;Temp;Humidity;BMP_temperature;BMP_pressure;BME280_temperature;BME280_humidity;BME280_pressure;Samples;Min_cycle;Max_cycle;Signal;HPM_P1;HPM_P2
2023/05/24 00:01:01;;;;;;;7.00;2.30;;;;;;;13.29;100.00;99495.80;108131;1266;72411;-49
2023/05/24 00:03:33;;;;;;;5.50;1.70;;;;;;;13.26;100.00;99494.39;104667;1269;67620;-48
2023/05/24 00:06:01;;;;;;;1.50;1.00;;;;;;;13.25;100.00;99498.79;104068;1271;72639;-48
2023/05/24 00:08:28;;;;;;;1.90;1.10;;;;;;;13.26;100.00;99500.73;104159;1266;64539;-48
2023/05/24 00:10:56;;;;;;;10.80;2.30;;;;;;;13.27;100.00;99500.48;104406;1266;60122;-48
2023/05/24 00:13:23;;;;;;;7.30;2.10;;;;;;;13.27;100.00;99500.28;104162;1267;73396;-47
2023/05/24 00:15:51;;;;;;;7.90;2.30;;;;;;;13.25;100.00;99496.44;104129;1267;68879;-48
2023/05/24 00:18:18;;;;;;;3.60;1.50;;;;;;;13.23;100.00;99496.52;104184;1266;72523;-47
2023/05/24 00:20:45;;;;;;;1.50;1.10;;;;;;;13.24;100.00;99496.65;104238;1267;62482;-45
2023/05/24 00:23:13;;;;;;;1.20;1.10;;;;;;;13.24;100.00;99500.98;104462;1267;61125;-48
2023/05/24 00:25:41;;;;;;;6.20;1.80;;;;;;;13.25;100.00;99498.79;104270;1266;74106;-49
2023/05/24 00:28:08;;;;;;;5.50;2.00;;;;;;;13.24;100.00;99498.63;104218;1272;67490;-48
2023/05/24 00:30:35;;;;;;;7.20;1.90;;;;;;;13.24;100.00;99499.54;104276;1272;73364;-49
2023/05/24 00:33:02;;;;;;;7.60;2.40;;;;;;;13.20;100.00;99500.30;104316;1267;60909;-49
2023/05/24 00:35:30;;;;;;;6.80;2.30;;;;;;;13.14;100.00;99504.84;104422;1266;60165;-47
2023/05/24 00:37:57;;;;;;;2.00;1.30;;;;;;;13.12;100.00;99507.11;104192;1267;71372;-49
2023/05/24 00:40:25;;;;;;;1.40;1.20;;;;;;;13.11;100.00;99503.75;104376;1267;67221;-50
2023/05/24 00:42:52;;;;;;;3.70;1.60;;;;;;;13.10;100.00;99505.23;104244;1268;73587;-47
2023/05/24 00:45:19;;;;;;;5.00;1.50;;;;;;;13.09;100.00;99503.72;104334;1267;59655;-48
2023/05/24 00:47:48;;;;;;;8.30;2.70;;;;;;;13.06;100.00;99503.20;105240;1266;59774;-49
2023/05/24 00:50:16;;;;;;;5.50;1.80;;;;;;;12.97;100.00;99508.25;104194;1267;73319;-48
2023/05/24 00:52:43;;;;;;;6.10;2.00;;;;;;;12.87;100.00;99507.05;104541;1266;66292;-47
2023/05/24 00:55:11;;;;;;;2.80;1.60;;;;;;;12.72;100.00;99509.21;104313;1266;72634;-47
2023/05/24 00:57:38;;;;;;;2.00;1.50;;;;;;;12.60;100.00;99512.52;104455;1272;60799;-47
2023/05/24 01:00:07;;;;;;;3.10;1.20;;;;;;;12.52;100.00;99508.48;104373;1271;60572;-48
2023/05/24 01:02:36;;;;;;;3.00;1.70;;;;;;;12.49;100.00;99505.42;104910;1273;71969;-48
2023/05/24 01:05:05;;;;;;;3.40;1.80;;;;;;;12.49;100.00;99508.48;104469;1266;67169;-47
2023/05/24 01:07:40;;;;;;;2.20;1.50;;;;;;;12.51;100.00;99509.79;104594;1266;73280;-48
2023/05/24 01:10:41;;;;;;;1.80;1.20;;;;;;;12.53;100.00;99507.86;104322;1269;61528;-47
2023/05/24 01:13:25;;;;;;;4.30;1.30;;;;;;;12.52;100.00;99509.40;104263;1272;59614;-48
2023/05/24 01:16:09;;;;;;;2.60;1.20;;;;;;;12.47;100.00;99509.34;104515;1267;73577;-47
2023/05/24 01:18:39;;;;;;;2.50;1.40;;;;;;;12.42;100.00;99514.69;104456;1272;70522;-49
2023/05/24 01:21:29;;;;;;;3.20;1.50;;;;;;;12.37;100.00;99515.85;104286;1267;73369;-48
2023/05/24 01:24:23;;;;;;;1.70;1.20;;;;;;;12.33;100.00;99521.00;104603;1272;60327;-48
2023/05/24 01:27:06;;;;;;;6.40;1.30;;;;;;;12.24;100.00;99525.06;104208;1273;60021;-47
2023/05/24 01:29:34;;;;;;;3.70;1.30;;;;;;;12.20;100.00;99528.39;104878;1267;75158;-47
2023/05/24 01:32:02;;;;;;;2.90;1.00;;;;;;;12.20;100.00;99531.27;104204;1272;70330;-48
2023/05/24 01:34:29;;;;;;;3.00;1.20;;;;;;;12.19;100.00;99534.93;104194;1269;74612;-48
2023/05/24 01:36:57;;;;;;;3.00;1.40;;;;;;;12.18;100.00;99537.48;104283;1270;62535;-47
2023/05/24 01:39:25;;;;;;;2.20;1.80;;;;;;;12.18;100.00;99541.29;104262;1267;62666;-46
2023/05/24 01:41:58;;;;;;;2.20;1.20;;;;;;;12.19;100.00;99540.52;105306;1266;75430;-48
2023/05/24 01:44:42;;;;;;;1.60;1.00;;;;;;;12.20;100.00;99541.18;104201;1272;66842;-46
2023/05/24 01:47:40;;;;;;;3.70;1.10;;;;;;;12.22;100.00;99543.58;104238;1270;73237;-49
2023/05/24 01:50:22;;;;;;;1.60;1.20;;;;;;;12.23;100.00;99539.58;105659;1266;60974;-48
2023/05/24 01:52:52;;;;;;;2.90;1.50;;;;;;;12.21;100.00;99542.35;104986;1266;62102;-47
2023/05/24 01:55:19;;;;;;;3.90;2.00;;;;;;;12.20;100.00;99546.77;103995;1267;72358;-47
2023/05/24 01:57:47;;;;;;;2.30;1.50;;;;;;;12.12;100.00;99543.59;104243;1266;68495;-48
2023/05/24 02:00:17;;;;;;;2.60;1.30;;;;;;;12.04;100.00;99541.73;104526;1267;74974;-47
2023/05/24 02:02:44;;;;;;;4.20;1.70;;;;;;;12.01;100.00;99539.04;104844;1269;60615;-47
2023/05/24 02:05:12;;;;;;;3.20;1.30;;;;;;;11.96;100.00;99540.03;104808;1267;59706;-47
2023/05/24 02:07:40;;;;;;;2.90;1.50;;;;;;;11.94;100.00;99540.30;104580;1271;75329;-48
2023/05/24 02:10:08;;;;;;;2.70;1.90;;;;;;;11.95;100.00;99538.81;104560;1270;66475;-45
2023/05/24 02:12:35;;;;;;;3.80;1.50;;;;;;;11.97;100.00;99542.30;104479;1270;74731;-45
2023/05/24 02:15:03;;;;;;;4.60;1.90;;;;;;;11.99;100.00;99548.16;104532;1266;61602;-45
2023/05/24 02:17:31;;;;;;;2.80;1.50;;;;;;;11.99;100.00;99549.00;106140;1267;62354;-46
2023/05/24 02:19:59;;;;;;;2.70;1.40;;;;;;;12.01;100.00;99549.47;108271;1266;73239;-48
2023/05/24 02:22:27;;;;;;;2.90;1.40;;;;;;;12.02;100.00;99547.78;108230;1266;70201;-48
2023/05/24 02:24:55;;;;;;;3.90;1.60;;;;;;;12.00;100.00;99542.67;108313;1266;75054;-47
2023/05/24 02:27:22;;;;;;;6.40;1.70;;;;;;;11.96;100.00;99541.65;108350;1266;60257;-48
2023/05/24 02:29:49;;;;;;;3.30;2.20;;;;;;;11.93;100.00;99545.77;106754;1267;59657;-46
2023/05/24 02:32:17;;;;;;;2.70;1.40;;;;;;;11.88;100.00;99544.44;104436;1272;74720;-46
2023/05/24 02:34:45;;;;;;;3.20;1.50;;;;;;;11.86;100.00;99550.52;104569;1266;68164;-45
2023/05/24 02:37:13;;;;;;;3.50;2.10;;;;;;;11.87;100.00;99550.61;104492;1266;75021;-44
2023/05/24 02:39:41;;;;;;;2.20;1.50;;;;;;;11.90;100.00;99553.53;104542;1272;63071;-47
2023/05/24 02:42:10;;;;;;;1.70;1.60;;;;;;;11.91;100.00;99555.65;104556;1267;59743;-47
2023/05/24 02:44:37;;;;;;;3.10;1.70;;;;;;;11.89;100.00;99555.54;104482;1272;75257;-48
2023/05/24 02:47:05;;;;;;;5.20;1.40;;;;;;;11.87;100.00;99553.15;104567;1270;66770;-47
2023/05/24 02:49:32;;;;;;;6.20;1.40;;;;;;;11.86;100.00;99553.04;106798;1267;72824;-48
2023/05/24 02:52:00;;;;;;;3.70;1.70;;;;;;;11.87;100.00;99549.56;104462;1271;60595;-46
2023/05/24 02:54:27;;;;;;;2.90;1.80;;;;;;;11.91;100.00;99554.39;104507;1267;60072;-47
2023/05/24 02:56:55;;;;;;;6.00;1.60;;;;;;;11.92;100.00;99551.02;104522;1267;72893;-47
2023/05/24 02:59:24;;;;;;;5.90;1.50;;;;;;;11.91;100.00;99552.02;108259;1271;67471;-47
2023/05/24 03:01:51;;;;;;;2.40;1.50;;;;;;;11.92;100.00;99557.17;105724;1267;71214;-48
2023/05/24 03:04:19;;;;;;;3.80;1.60;;;;;;;11.94;100.00;99563.52;106041;1270;60260;-49
2023/05/24 03:06:47;;;;;;;1.90;1.30;;;;;;;11.98;100.00;99567.09;104481;1266;60530;-44
2023/05/24 03:09:15;;;;;;;2.40;1.50;;;;;;;12.03;100.00;99566.21;104780;1268;73819;-44
2023/05/24 03:11:43;;;;;;;3.10;1.70;;;;;;;12.08;100.00;99567.94;105031;1267;66808;-44
2023/05/24 03:14:11;;;;;;;2.20;1.10;;;;;;;12.10;100.00;99568.34;104503;1269;72966;-47
2023/05/24 03:16:40;;;;;;;2.30;1.60;;;;;;;12.14;100.00;99565.29;105752;1269;61183;-46
2023/05/24 03:19:08;;;;;;;8.10;1.40;;;;;;;12.15;100.00;99564.52;104580;1267;60457;-45
2023/05/24 03:21:36;;;;;;;3.20;1.70;;;;;;;12.13;100.00;99566.39;105465;1267;74884;-46
2023/05/24 03:24:04;;;;;;;2.80;1.30;;;;;;;12.16;100.00;99573.99;104563;1272;66774;-46
2023/05/24 03:26:32;;;;;;;2.20;1.50;;;;;;;12.20;100.00;99573.74;104525;1272;72135;-46
2023/05/24 03:28:59;;;;;;;1.90;1.50;;;;;;;12.28;100.00;99576.15;104480;1271;61603;-47
2023/05/24 03:31:32;;;;;;;2.30;1.60;;;;;;;12.37;100.00;99577.25;104520;1268;60365;-45
2023/05/24 03:34:00;;;;;;;3.20;1.70;;;;;;;12.48;100.00;99584.14;104819;1263;73669;-48
2023/05/24 03:36:28;;;;;;;2.60;1.90;;;;;;;12.58;100.00;99586.05;105104;1263;67790;-48
2023/05/24 03:38:57;;;;;;;3.20;1.60;;;;;;;12.68;100.00;99588.88;104789;1263;72637;-48
2023/05/24 03:41:26;;;;;;;2.00;1.80;;;;;;;12.80;100.00;99591.60;104708;1262;61542;-47
2023/05/24 03:43:57;;;;;;;5.10;1.90;;;;;;;12.90;100.00;99590.83;104606;1263;60551;-49
2023/05/24 03:46:25;;;;;;;2.60;1.60;;;;;;;12.96;100.00;99594.02;104760;1265;76239;-48
2023/05/24 03:48:54;;;;;;;6.20;2.00;;;;;;;13.03;100.00;99593.80;104826;1269;66043;-47
2023/05/24 03:51:28;;;;;;;2.50;1.70;;;;;;;13.10;100.00;99593.91;104928;1263;71431;-48
2023/05/24 03:53:56;;;;;;;3.70;1.80;;;;;;;13.21;100.00;99599.73;104909;1269;61844;-48
2023/05/24 03:56:25;;;;;;;2.60;1.50;;;;;;;13.31;100.00;99597.89;104710;1267;60529;-47
2023/05/24 03:58:52;;;;;;;4.80;1.90;;;;;;;13.41;100.00;99598.13;104471;1263;73651;-46
2023/05/24 04:01:20;;;;;;;3.60;1.60;;;;;;;13.53;100.00;99604.20;104605;1263;66434;-47
2023/05/24 04:04:00;;;;;;;7.30;3.00;;;;;;;13.66;100.00;99606.83;104884;1263;73185;-47
2023/05/24 04:06:29;;;;;;;5.00;3.10;;;;;;;13.80;100.00;99607.41;104931;1268;60796;-49
2023/05/24 04:08:57;;;;;;;6.40;3.20;;;;;;;13.93;100.00;99608.02;104384;1263;60504;-46
2023/05/24 04:11:28;;;;;;;5.20;3.50;;;;;;;14.05;100.00;99607.75;104590;1263;71786;-47
2023/05/24 04:13:56;;;;;;;5.00;2.60;;;;;;;14.17;100.00;99608.38;104362;1265;67254;-46
2023/05/24 04:16:24;;;;;;;6.50;4.70;;;;;;;14.28;100.00;99608.20;104983;1268;72578;-45
2023/05/24 04:18:53;;;;;;;7.50;5.50;;;;;;;14.41;100.00;99609.00;105267;1263;60795;-47
2023/05/24 04:21:21;;;;;;;5.00;3.70;;;;;;;14.56;100.00;99611.78;105237;1268;60843;-47
2023/05/24 04:23:49;;;;;;;7.70;4.20;;;;;;;14.71;100.00;99612.58;104884;1267;74357;-48
2023/05/24 04:26:16;;;;;;;6.80;4.50;;;;;;;14.86;100.00;99611.91;104861;1264;67051;-48
2023/05/24 04:28:47;;;;;;;6.10;4.00;;;;;;;15.00;100.00;99614.58;104765;1269;72497;-47
2023/05/24 04:31:15;;;;;;;10.00;4.60;;;;;;;15.14;100.00;99613.59;105319;1254;61909;-48
2023/05/24 04:33:42;;;;;;;6.00;5.00;;;;;;;15.27;100.00;99616.54;105211;1259;60478;-48
2023/05/24 04:36:10;;;;;;;4.40;3.80;;;;;;;15.39;100.00;99618.35;105218;1260;74954;-45
2023/05/24 04:38:38;;;;;;;7.30;3.80;;;;;;;15.52;100.00;99617.98;105178;1257;68493;-49
2023/05/24 04:41:06;;;;;;;5.00;3.20;;;;;;;15.65;100.00;99623.10;105738;1256;71555;-49
2023/05/24 04:43:33;;;;;;;6.40;3.20;;;;;;;15.78;100.00;99620.67;105182;1261;60537;-46
2023/05/24 04:46:01;;;;;;;4.30;3.20;;;;;;;15.91;100.00;99623.91;105374;1254;60515;-49
2023/05/24 04:48:28;;;;;;;8.90;3.60;;;;;;;16.04;100.00;99625.48;105336;1255;74394;-49
2023/05/24 04:50:57;;;;;;;6.30;2.20;;;;;;;16.17;100.00;99623.80;105095;1259;68346;-49
2023/05/24 04:53:24;;;;;;;5.00;2.50;;;;;;;16.33;100.00;99625.73;105707;1259;72511;-48
2023/05/24 04:55:52;;;;;;;5.00;2.70;;;;;;;16.48;100.00;99627.80;105882;1257;60547;-48
2023/05/24 04:58:19;;;;;;;4.60;1.70;;;;;;;16.63;100.00;99628.91;105064;1256;60427;-49
2023/05/24 05:00:46;;;;;;;5.10;1.60;;;;;;;16.78;100.00;99635.02;105052;1256;76255;-48
2023/05/24 05:03:14;;;;;;;8.50;1.90;;;;;;;16.91;100.00;99644.33;105134;1257;67613;-49
2023/05/24 05:05:42;;;;;;;5.10;2.20;;;;;;;17.04;100.00;99640.08;106575;1257;74072;-49
2023/05/24 05:08:09;;;;;;;3.20;2.30;;;;;;;17.16;100.00;99649.10;105216;1259;61022;-47
2023/05/24 05:10:37;;;;;;;7.00;3.30;;;;;;;17.28;100.00;99656.17;105356;1259;60492;-49
2023/05/24 05:13:04;;;;;;;6.30;4.40;;;;;;;17.40;100.00;99659.05;105381;1254;73677;-47
2023/05/24 05:15:32;;;;;;;9.40;3.90;;;;;;;17.52;100.00;99659.23;105429;1259;66963;-49
2023/05/24 05:17:59;;;;;;;7.40;3.70;;;;;;;17.64;100.00;99660.30;106282;1259;71804;-47
2023/05/24 05:20:27;;;;;;;3.60;3.20;;;;;;;17.77;100.00;99662.16;105329;1256;60610;-49
2023/05/24 05:22:54;;;;;;;6.40;3.90;;;;;;;17.90;100.00;99663.27;105333;1259;60683;-47
2023/05/24 05:25:22;;;;;;;5.00;2.60;;;;;;;18.05;100.00;99669.01;108956;1255;74108;-49
2023/05/24 05:27:49;;;;;;;10.10;2.80;;;;;;;18.20;100.00;99673.94;109006;1259;66328;-49
2023/05/24 05:30:17;;;;;;;8.30;2.70;;;;;;;18.33;100.00;99676.45;109037;1254;72451;-49
2023/05/24 05:32:44;;;;;;;10.40;3.90;;;;;;;18.47;100.00;99682.05;108928;1256;60706;-49
2023/05/24 05:35:11;;;;;;;2.40;2.00;;;;;;;18.61;100.00;99685.49;108897;1255;60078;-49
2023/05/24 05:37:39;;;;;;;7.30;1.90;;;;;;;18.75;100.00;99688.87;109016;1254;74025;-49
2023/05/24 05:40:07;;;;;;;6.60;1.40;;;;;;;18.89;100.00;99689.11;109052;1254;67916;-49
2023/05/24 05:42:34;;;;;;;4.80;1.20;;;;;;;19.03;100.00;99697.05;108254;1256;71179;-47
2023/05/24 05:45:01;;;;;;;5.10;1.40;;;;;;;19.14;100.00;99703.75;105270;1259;60438;-48
2023/05/24 05:47:29;;;;;;;4.40;1.40;;;;;;;19.26;100.00;99706.41;105309;1255;60472;-47
2023/05/24 05:49:56;;;;;;;1.90;1.00;;;;;;;19.35;100.00;99706.86;109055;1253;73467;-50
2023/05/24 05:52:24;;;;;;;1.50;0.80;;;;;;;19.44;100.00;99706.85;109139;1253;68201;-50
2023/05/24 05:54:51;;;;;;;1.70;0.80;;;;;;;19.52;100.00;99711.23;109000;1257;74099;-50
2023/05/24 05:57:22;;;;;;;1.40;0.80;;;;;;;19.61;100.00;99712.67;108991;1253;60370;-50
2023/05/24 05:59:50;;;;;;;1.60;0.80;;;;;;;19.69;100.00;99714.92;109067;1253;59832;-50
2023/05/24 06:02:17;;;;;;;2.20;0.90;;;;;;;19.75;100.00;99718.73;109139;1254;74948;-50
2023/05/24 06:04:45;;;;;;;3.40;1.00;;;;;;;19.82;100.00;99721.20;109154;1254;67487;-50
2023/05/24 06:07:12;;;;;;;1.90;0.70;;;;;;;19.89;100.00;99721.67;105686;1257;73882;-49
2023/05/24 06:09:40;;;;;;;4.20;0.90;;;;;;;19.97;100.00;99728.66;105409;1260;60505;-50
2023/05/24 06:12:07;;;;;;;1.00;0.60;;;;;;;20.05;100.00;99726.33;105455;1254;60424;-49
2023/05/24 06:14:37;;;;;;;4.90;0.70;;;;;;;20.11;100.00;99729.58;105427;1254;74095;-48
2023/05/24 06:17:05;;;;;;;2.60;0.90;;;;;;;20.18;100.00;99730.05;105188;1257;67122;-47
2023/05/24 06:19:32;;;;;;;2.50;0.70;;;;;;;20.25;100.00;99728.51;104830;1262;72182;-49
2023/05/24 06:22:00;;;;;;;3.50;0.70;;;;;;;20.30;100.00;99730.64;104912;1253;60754;-49
2023/05/24 06:24:27;;;;;;;1.20;0.60;;;;;;;20.34;100.00;99733.15;105843;1256;62167;-49
2023/05/24 06:26:55;;;;;;;2.10;0.70;;;;;;;20.39;100.00;99732.04;104916;1254;75244;-48
2023/05/24 06:29:24;;;;;;;1.60;0.70;;;;;;;20.46;100.00;99738.03;104907;1259;68822;-48
2023/05/24 06:31:51;;;;;;;1.70;0.80;;;;;;;20.52;100.00;99739.42;105370;1254;72921;-49
2023/05/24 06:34:22;;;;;;;6.10;0.70;;;;;;;20.60;100.00;99742.17;105153;1254;60427;-49
2023/05/24 06:36:51;;;;;;;1.40;0.70;;;;;;;20.64;100.00;99740.53;105383;1255;61167;-49
2023/05/24 06:39:19;;;;;;;0.90;0.50;;;;;;;20.68;100.00;99740.16;105218;1259;73739;-48
2023/05/24 06:41:50;;;;;;;2.10;0.50;;;;;;;20.72;100.00;99739.78;105069;1256;68085;-47
2023/05/24 06:44:29;;;;;;;1.20;0.40;;;;;;;20.80;100.00;99740.73;104927;1257;71733;-48
2023/05/24 06:46:56;;;;;;;0.80;0.60;;;;;;;20.88;100.00;99738.13;105072;1253;60492;-49
2023/05/24 06:49:24;;;;;;;3.60;0.80;;;;;;;20.96;100.00;99737.23;105126;1259;60798;-49
2023/05/24 06:51:51;;;;;;;2.00;0.40;;;;;;;21.03;100.00;99739.28;105265;1257;73279;-48
2023/05/24 06:54:19;;;;;;;3.20;0.40;;;;;;;21.12;100.00;99743.27;105439;1257;69047;-47
2023/05/24 06:56:47;;;;;;;1.50;0.40;;;;;;;21.18;100.00;99748.52;105810;1256;75031;-49
2023/05/24 06:59:14;;;;;;;0.50;0.40;;;;;;;21.26;100.00;99746.02;105213;1256;60917;-48
2023/05/24 07:01:42;;;;;;;1.60;0.40;;;;;;;21.32;100.00;99746.77;105316;1259;61102;-48
2023/05/24 07:04:10;;;;;;;1.30;0.50;;;;;;;21.39;100.00;99746.06;105277;1259;73327;-49
2023/05/24 07:06:38;;;;;;;3.10;0.50;;;;;;;21.45;100.00;99747.33;105283;1260;68634;-48
2023/05/24 07:09:05;;;;;;;0.70;0.40;;;;;;;21.49;100.00;99752.93;105271;1259;72746;-49
2023/05/24 07:11:33;;;;;;;5.00;0.70;;;;;;;21.57;100.00;99754.61;105173;1254;60546;-50
2023/05/24 07:14:00;;;;;;;0.90;0.50;;;;;;;21.62;100.00;99755.98;105199;1259;60819;-48
2023/05/24 07:16:27;;;;;;;1.50;0.60;;;;;;;21.65;100.00;99755.27;105151;1259;74532;-50
2023/05/24 07:18:57;;;;;;;2.50;1.00;;;;;;;21.70;100.00;99757.04;106014;1257;67280;-50
2023/05/24 07:21:24;;;;;;;4.40;0.60;;;;;;;21.75;100.00;99761.86;105367;1259;71999;-50
2023/05/24 07:23:52;;;;;;;1.50;0.50;;;;;;;21.82;100.00;99760.55;105266;1255;60470;-50
2023/05/24 07:26:20;;;;;;;3.60;0.50;;;;;;;21.90;100.00;99765.48;105324;1256;61555;-50
2023/05/24 07:28:48;;;;;;;2.50;0.60;;;;;;;21.96;100.00;99763.88;105334;1257;72432;-49
2023/05/24 07:31:15;;;;;;;3.70;0.60;;;;;;;21.98;100.00;99764.05;105385;1254;67520;-49
2023/05/24 07:33:42;;;;;;;2.80;0.90;;;;;;;22.03;100.00;99761.91;105287;1257;71711;-50
2023/05/24 07:36:10;;;;;;;1.30;0.60;;;;;;;22.12;100.00;99767.27;105150;1259;61227;-50
2023/05/24 07:38:37;;;;;;;4.10;0.50;;;;;;;22.23;100.00;99766.41;105223;1259;60377;-51
2023/05/24 07:41:05;;;;;;;1.00;0.50;;;;;;;22.32;100.00;99768.41;105347;1257;73816;-51
2023/05/24 07:43:33;;;;;;;0.60;0.40;;;;;;;22.43;100.00;99769.70;105203;1259;66809;-51
2023/05/24 07:46:00;;;;;;;0.90;0.40;;;;;;;22.55;100.00;99770.19;105418;1256;71296;-51
2023/05/24 07:48:27;;;;;;;1.90;0.40;;;;;;;22.67;100.00;99775.09;105189;1259;60438;-50
2023/05/24 07:50:55;;;;;;;0.80;0.30;;;;;;;22.79;100.00;99777.20;105399;1259;60597;-51
2023/05/24 07:53:22;;;;;;;1.50;0.30;;;;;;;22.89;100.00;99784.27;105344;1259;74247;-50
2023/05/24 07:55:50;;;;;;;2.30;0.50;;;;;;;22.96;100.00;99787.70;105379;1260;69539;-50
2023/05/24 07:58:18;;;;;;;0.90;0.50;;;;;;;23.03;100.00;99785.39;105378;1254;73235;-52
2023/05/24 08:00:45;;;;;;;2.60;0.50;;;;;;;23.11;100.00;99789.04;105298;1257;60543;-52
2023/05/24 08:03:13;;;;;;;0.90;0.40;;;;;;;23.20;100.00;99795.58;105430;1254;60973;-50
2023/05/24 08:05:41;;;;;;;1.60;0.30;;;;;;;23.30;100.00;99803.55;105403;1254;74057;-51
2023/05/24 08:08:09;;;;;;;1.90;0.30;;;;;;;23.37;100.00;99801.00;105297;1254;66032;-50
2023/05/24 08:10:37;;;;;;;5.20;0.40;;;;;;;23.42;100.00;99803.96;106839;1259;73330;-50
2023/05/24 08:13:04;;;;;;;1.20;0.40;;;;;;;23.49;100.00;99805.16;105349;1254;60516;-50
2023/05/24 08:15:32;;;;;;;0.40;0.40;;;;;;;23.56;100.00;99802.84;105235;1259;60559;-50
2023/05/24 08:20:16;;;;;;;3.00;0.40;;;;;;;23.69;100.00;99799.20;102449;1291;600471;-50
2023/05/24 08:22:44;;;;;;;2.50;0.30;;;;;;;23.72;100.00;99802.95;104661;1269;61224;-52
2023/05/24 08:25:12;;;;;;;5.80;0.40;;;;;;;23.78;100.00;99802.19;104819;1272;59318;-51
2023/05/24 08:27:40;;;;;;;1.30;0.50;;;;;;;23.87;100.00;99805.67;104388;1270;70652;-50
2023/05/24 08:30:07;;;;;;;0.80;0.70;;;;;;;23.96;100.00;99807.41;104438;1269;67133;-50
2023/05/24 08:32:35;;;;;;;2.60;0.50;;;;;;;24.03;100.00;99807.30;104477;1272;71268;-50
2023/05/24 08:35:03;;;;;;;1.50;0.40;;;;;;;24.04;100.00;99804.91;104362;1275;217984;-50
2023/05/24 08:37:46;;;;;;;2.60;0.40;;;;;;;24.04;100.00;99797.80;106341;1268;59747;-50
2023/05/24 08:40:14;;;;;;;2.70;0.50;;;;;;;24.06;100.00;99798.33;104712;1263;71150;-50
2023/05/24 08:42:42;;;;;;;0.30;0.30;;;;;;;24.11;100.00;99796.48;104767;1269;67644;-49
2023/05/24 08:45:13;;;;;;;2.60;0.30;;;;;;;24.13;100.00;99801.80;104609;1269;73130;-51
2023/05/24 08:47:41;;;;;;;4.30;0.30;;;;;;;24.01;100.00;99797.18;104657;1263;59749;-50
2023/05/24 08:50:09;;;;;;;0.40;0.40;;;;;;;23.88;100.00;99790.47;104872;1269;59715;-50
2023/05/24 08:52:36;;;;;;;5.50;0.40;;;;;;;23.81;100.00;99790.74;104791;1268;72879;-50
2023/05/24 08:55:04;;;;;;;1.10;0.40;;;;;;;23.80;100.00;99789.54;104926;1268;68309;-51
2023/05/24 08:57:33;;;;;;;2.40;0.50;;;;;;;23.83;100.00;99789.00;105365;1268;72062;-50
2023/05/24 09:00:01;;;;;;;6.20;0.40;;;;;;;23.88;100.00;99790.95;105744;1267;60094;-49
2023/05/24 09:02:29;;;;;;;0.70;0.50;;;;;;;23.93;100.00;99789.98;104637;1271;59825;-48
2023/05/24 09:04:56;;;;;;;1.30;0.40;;;;;;;23.99;100.00;99780.17;104621;1266;72368;-51
2023/05/24 09:07:23;;;;;;;4.10;0.40;;;;;;;24.06;100.00;99782.52;104170;1266;67658;-51
2023/05/24 09:10:01;;;;;;;1.30;0.40;;;;;;;24.16;100.00;99785.41;104649;1265;72031;-55
2023/05/24 09:12:30;;;;;;;1.00;0.50;;;;;;;24.25;100.00;99785.95;104546;1272;60285;-52
2023/05/24 09:15:01;;;;;;;3.60;0.60;;;;;;;24.32;100.00;99782.50;104589;1267;61665;-49
2023/05/24 09:17:30;;;;;;;3.50;0.50;;;;;;;24.40;100.00;99782.84;104754;1269;75438;-50
2023/05/24 09:20:00;;;;;;;3.80;0.60;;;;;;;24.49;100.00;99783.18;107975;1270;69843;-51
2023/05/24 09:22:29;;;;;;;1.90;0.50;;;;;;;24.55;100.00;99782.91;107558;1265;72622;-50
2023/05/24 09:24:58;;;;;;;2.10;0.50;;;;;;;24.60;100.00;99783.14;104529;1266;59729;-50
2023/05/24 09:27:26;;;;;;;0.70;0.50;;;;;;;24.64;100.00;99778.73;105545;1263;60684;-49
2023/05/24 09:29:54;;;;;;;1.50;0.50;;;;;;;24.62;100.00;99778.89;106070;1263;72458;-49
2023/05/24 09:32:24;;;;;;;0.70;0.50;;;;;;;24.57;100.00;99783.54;104941;1263;67091;-50
2023/05/24 09:34:52;;;;;;;4.30;0.60;;;;;;;24.58;100.00;99783.96;107141;1263;72522;-49
2023/05/24 09:37:22;;;;;;;3.40;0.60;;;;;;;24.64;100.00;99780.31;108606;1262;59334;-49
2023/05/24 09:39:57;;;;;;;3.70;0.50;;;;;;;24.75;100.00;99784.49;107209;1265;59943;-50
2023/05/24 09:42:27;;;;;;;1.40;0.50;;;;;;;24.87;100.00;99779.34;106595;1266;73622;-50
2023/05/24 09:45:03;;;;;;;0.70;0.50;;;;;;;24.96;100.00;99781.71;108626;1262;68567;-51
2023/05/24 09:47:31;;;;;;;1.00;0.60;;;;;;;25.01;100.00;99786.53;105469;1262;72590;-50
2023/05/24 09:50:00;;;;;;;3.10;0.50;;;;;;;25.09;100.00;99782.50;105689;1258;60600;-52
2023/05/24 09:52:27;;;;;;;3.50;0.60;;;;;;;25.20;100.00;99781.27;105314;1259;59650;-50
2023/05/24 09:54:55;;;;;;;1.60;0.40;;;;;;;25.31;100.00;99777.29;105126;1263;72096;-50
2023/05/24 09:57:22;;;;;;;3.60;0.50;;;;;;;25.33;100.00;99782.05;105096;1257;66599;-50
2023/05/24 09:59:51;;;;;;;0.70;0.50;;;;;;;25.27;100.00;99788.52;104964;1263;73071;-51
2023/05/24 10:02:21;;;;;;;3.70;0.60;;;;;;;25.19;100.00;99792.34;105337;1257;59853;-50
2023/05/24 10:04:56;;;;;;;1.80;0.50;;;;;;;25.09;100.00;99786.31;105404;1262;61035;-50
2023/05/24 10:07:24;;;;;;;2.70;0.50;;;;;;;24.96;100.00;99781.75;105054;1263;73367;-50
2023/05/24 10:09:51;;;;;;;1.90;0.50;;;;;;;24.81;100.00;99779.27;104849;1266;68388;-50
2023/05/24 10:12:21;;;;;;;3.40;0.50;;;;;;;24.67;100.00;99775.30;105077;1262;73820;-51
2023/05/24 10:14:49;;;;;;;2.60;0.60;;;;;;;24.54;100.00;99774.13;105665;1263;62159;-50
2023/05/24 10:17:16;;;;;;;0.80;0.50;;;;;;;24.44;100.00;99773.79;104879;1263;59610;-48
2023/05/24 10:19:45;;;;;;;1.80;0.60;;;;;;;24.35;100.00;99772.83;105071;1261;73360;-50
2023/05/24 10:22:12;;;;;;;0.80;0.40;;;;;;;24.25;100.00;99768.35;106365;1260;67502;-50
2023/05/24 10:24:44;;;;;;;2.00;0.60;;;;;;;24.18;100.00;99766.65;105049;1261;73232;-50
2023/05/24 10:27:14;;;;;;;3.00;0.50;;;;;;;24.17;100.00;99765.90;105102;1260;60454;-50
2023/05/24 10:29:58;;;;;;;0.60;0.40;;;;;;;24.16;100.00;99762.52;105072;1261;59608;-48
2023/05/24 10:32:30;;;;;;;2.00;0.60;;;;;;;24.14;100.00;99764.36;106572;1257;74741;-48
2023/05/24 10:34:58;;;;;;;3.10;0.50;;;;;;;24.08;100.00;99757.60;105330;1262;66601;-48
2023/05/24 10:37:25;;;;;;;7.70;0.50;;;;;;;24.04;100.00;99761.16;104969;1267;71702;-48
2023/05/24 10:39:53;;;;;;;6.60;0.50;;;;;;;24.03;100.00;99759.45;104941;1262;60043;-50
2023/05/24 10:42:20;;;;;;;4.50;0.70;;;;;;;24.02;100.00;99759.55;104925;1262;60261;-49
2023/05/24 10:44:47;;;;;;;3.00;0.40;;;;;;;23.94;100.00;99757.42;105195;1261;72073;-49
2023/05/24 10:47:16;;;;;;;1.10;0.40;;;;;;;23.88;100.00;99759.20;105046;1256;67600;-50
2023/05/24 10:49:50;;;;;;;2.80;0.40;;;;;;;23.86;100.00;99755.19;104812;1265;72692;-49
2023/05/24 10:52:17;;;;;;;4.10;0.60;;;;;;;23.85;100.00;99753.42;105048;1262;60117;-49
2023/05/24 10:55:04;;;;;;;3.90;1.00;;;;;;;23.87;100.00;99754.72;105076;1265;59708;-49
2023/05/24 10:57:32;;;;;;;1.10;0.40;;;;;;;23.93;100.00;99754.11;105161;1257;73482;-49
2023/05/24 11:00:24;;;;;;;3.80;0.50;;;;;;;24.01;100.00;99756.00;105107;1258;69872;-49
2023/05/24 11:03:07;;;;;;;0.70;0.50;;;;;;;24.11;100.00;99760.45;105653;1257;71169;-49
2023/05/24 11:05:44;;;;;;;4.70;0.40;;;;;;;24.17;100.00;99762.92;105245;1262;59662;-48
2023/05/24 11:08:13;;;;;;;7.70;0.50;;;;;;;24.20;100.00;99764.10;105099;1263;60278;-49
2023/05/24 11:10:40;;;;;;;4.40;0.50;;;;;;;24.23;100.00;99772.62;105118;1262;73242;-49
2023/05/24 11:13:10;;;;;;;4.40;0.50;;;;;;;24.23;100.00;99768.94;106200;1260;66382;-49
2023/05/24 11:15:38;;;;;;;3.10;0.40;;;;;;;24.22;100.00;99771.84;105085;1258;71548;-50
2023/05/24 11:18:11;;;;;;;1.90;0.50;;;;;;;24.20;100.00;99765.58;105187;1262;59729;-50
2023/05/24 11:20:40;;;;;;;4.70;0.50;;;;;;;24.19;100.00;99766.90;105117;1261;60423;-50
2023/05/24 11:23:09;;;;;;;0.60;0.40;;;;;;;24.17;100.00;99765.50;107060;1257;71726;-50
2023/05/24 11:25:37;;;;;;;1.20;0.50;;;;;;;24.14;100.00;99764.13;104898;1258;67850;-49
2023/05/24 11:28:09;;;;;;;0.40;0.40;;;;;;;24.12;100.00;99762.48;104793;1260;73349;-49